createdAt,value
2017-03-17T00:00:16.125Z,1008.18
2017-03-17T00:01:10.183Z,1008.10
2017-03-17T00:02:10.181Z,1008.14
2017-03-17T00:03:05.243Z,1008.10
2017-03-17T00:04:00.266Z,1008.10
2017-03-17T00:05:01.279Z,1008.09
2017-03-17T00:06:01.319Z,1008.08
2017-03-17T00:07:01.308Z,1008.09
2017-03-17T00:07:56.361Z,1008.04
2017-03-17T00:08:50.381Z,1008.08
2017-03-17T00:09:50.451Z,1008.10
2017-03-17T00:10:45.513Z,1008.09
2017-03-17T00:11:39.558Z,1008.07
2017-03-17T00:12:27.526Z,1008.08
2017-03-17T00:13:16.578Z,1008.07
2017-03-17T00:14:16.654Z,1008.15
2017-03-17T00:15:11.653Z,1008.07
2017-03-17T00:16:11.655Z,1008.06
2017-03-17T00:17:06.695Z,1008.02
2017-03-17T00:18:01.709Z,1008.03
2017-03-17T00:19:01.760Z,1007.97
2017-03-17T00:19:56.776Z,1007.95
2017-03-17T00:20:51.828Z,1008.00
2017-03-17T00:21:52.305Z,1007.95
2017-03-17T00:22:46.881Z,1007.95
2017-03-17T00:23:41.950Z,1008.00
2017-03-17T00:24:42.950Z,1007.99
2017-03-17T00:25:43.941Z,1007.98
2017-03-17T00:26:39.155Z,1007.96
2017-03-17T00:27:33.053Z,1007.95
2017-03-17T00:28:33.081Z,1007.95
2017-03-17T00:29:33.099Z,1007.96
2017-03-17T00:30:33.115Z,1007.94
2017-03-17T00:31:27.437Z,1007.88
2017-03-17T00:32:16.239Z,1007.86
2017-03-17T00:33:16.199Z,1007.83
2017-03-17T00:34:05.202Z,1007.83
2017-03-17T00:35:00.327Z,1007.80
2017-03-17T00:35:54.356Z,1007.81
2017-03-17T00:36:54.373Z,1007.82
2017-03-17T00:37:49.432Z,1007.75
2017-03-17T00:38:49.441Z,1007.78
2017-03-17T00:39:44.503Z,1007.76
2017-03-17T00:40:38.529Z,1007.78
2017-03-17T00:41:38.520Z,1007.78
2017-03-17T00:42:32.533Z,1007.81
2017-03-17T00:43:26.620Z,1007.82
2017-03-17T00:44:15.594Z,1007.85
2017-03-17T00:45:04.635Z,1007.83
2017-03-17T00:45:53.651Z,1007.84
2017-03-17T00:46:41.715Z,1007.89
2017-03-17T00:47:29.764Z,1007.85
2017-03-17T00:48:18.803Z,1007.88
2017-03-17T00:49:12.834Z,1007.89
2017-03-17T00:50:13.846Z,1007.90
2017-03-17T00:51:13.910Z,1007.92
2017-03-17T00:52:08.858Z,1007.88
2017-03-17T00:53:08.880Z,1007.85
2017-03-17T00:54:03.031Z,1007.76
2017-03-17T00:55:03.053Z,1007.78
2017-03-17T00:55:58.060Z,1007.82
2017-03-17T00:56:53.090Z,1007.76
2017-03-17T00:57:53.122Z,1007.76
2017-03-17T00:58:48.168Z,1007.77
2017-03-17T00:59:48.186Z,1007.82
2017-03-17T01:00:48.241Z,1007.77
2017-03-17T01:01:48.295Z,1007.74
2017-03-17T01:02:42.304Z,1007.69
2017-03-17T01:03:42.428Z,1007.69
2017-03-17T01:04:37.321Z,1007.64
2017-03-17T01:05:32.332Z,1007.59
2017-03-17T01:06:26.846Z,1007.58
2017-03-17T01:07:21.428Z,1007.68
2017-03-17T01:08:15.453Z,1007.67
2017-03-17T01:09:15.504Z,1007.73
2017-03-17T01:10:04.559Z,1007.79
2017-03-17T01:10:59.562Z,1007.80
2017-03-17T01:11:48.596Z,1007.80
2017-03-17T01:12:37.650Z,1007.78
2017-03-17T01:13:31.709Z,1007.83
2017-03-17T01:14:26.098Z,1007.84
2017-03-17T01:15:19.778Z,1007.80
2017-03-17T01:16:13.763Z,1007.75
2017-03-17T01:17:07.906Z,1007.81
2017-03-17T01:17:56.865Z,1007.80
2017-03-17T01:18:50.907Z,1007.77
2017-03-17T01:19:39.913Z,1007.79
2017-03-17T01:20:39.907Z,1007.76
2017-03-17T01:21:41.344Z,1007.74
2017-03-17T01:22:35.026Z,1007.74
2017-03-17T01:23:29.516Z,1007.77
2017-03-17T01:24:23.054Z,1007.78
2017-03-17T01:25:17.146Z,1007.76
2017-03-17T01:26:11.126Z,1007.73
2017-03-17T01:26:59.221Z,1007.73
2017-03-17T01:27:53.231Z,1007.75
2017-03-17T01:28:47.306Z,1007.77
2017-03-17T01:29:35.261Z,1007.80
2017-03-17T01:30:36.342Z,1007.78
2017-03-17T01:31:36.348Z,1007.78
2017-03-17T01:32:36.353Z,1007.74
2017-03-17T01:33:25.471Z,1007.72
2017-03-17T01:34:13.392Z,1007.68
2017-03-17T01:35:07.482Z,1007.69
2017-03-17T01:36:01.611Z,1007.68
2017-03-17T01:36:56.537Z,1007.68
2017-03-17T01:37:51.632Z,1007.65
2017-03-17T01:38:45.580Z,1007.72
2017-03-17T01:39:33.654Z,1007.74
2017-03-17T01:40:27.648Z,1007.73
2017-03-17T01:41:21.724Z,1007.73
2017-03-17T01:42:16.740Z,1007.70
2017-03-17T01:43:05.777Z,1007.69
2017-03-17T01:43:53.854Z,1007.66
2017-03-17T01:44:41.813Z,1007.65
2017-03-17T01:45:30.867Z,1007.64
2017-03-17T01:46:24.926Z,1007.61
2017-03-17T01:47:19.011Z,1007.58
2017-03-17T01:48:08.030Z,1007.58
2017-03-17T01:48:56.109Z,1007.62
2017-03-17T01:49:50.124Z,1007.62
2017-03-17T01:50:50.106Z,1007.60
2017-03-17T01:51:45.646Z,1007.59
2017-03-17T01:52:39.178Z,1007.56
2017-03-17T01:53:28.245Z,1007.56
2017-03-17T01:54:17.302Z,1007.60
2017-03-17T01:55:06.324Z,1007.66
2017-03-17T01:56:00.346Z,1007.69
2017-03-17T01:56:48.425Z,1007.70
2017-03-17T01:57:48.448Z,1007.67
2017-03-17T01:58:42.437Z,1007.69
2017-03-17T01:59:36.535Z,1007.69
2017-03-17T02:00:25.534Z,1007.68
2017-03-17T02:01:19.557Z,1007.69
2017-03-17T02:02:13.593Z,1007.71
2017-03-17T02:03:01.613Z,1007.75
2017-03-17T02:03:55.676Z,1007.74
2017-03-17T02:04:43.755Z,1007.75
2017-03-17T02:05:37.753Z,1007.72
2017-03-17T02:06:25.744Z,1007.71
2017-03-17T02:07:20.822Z,1007.70
2017-03-17T02:08:20.829Z,1007.68
2017-03-17T02:09:14.842Z,1007.66
2017-03-17T02:10:03.959Z,1007.74
2017-03-17T02:10:52.944Z,1007.75
2017-03-17T02:11:48.016Z,1007.66
2017-03-17T02:12:36.982Z,1007.64
2017-03-17T02:13:31.067Z,1007.68
2017-03-17T02:14:26.105Z,1007.68
2017-03-17T02:15:14.116Z,1007.67
2017-03-17T02:16:02.244Z,1007.59
2017-03-17T02:16:51.208Z,1007.54
2017-03-17T02:17:40.249Z,1007.50
2017-03-17T02:18:34.244Z,1007.50
2017-03-17T02:19:23.305Z,1007.53
2017-03-17T02:20:11.349Z,1007.52
2017-03-17T02:21:06.428Z,1007.56
2017-03-17T02:21:55.440Z,1007.61
2017-03-17T02:22:49.404Z,1007.57
2017-03-17T02:23:37.528Z,1007.53
2017-03-17T02:24:25.541Z,1007.53
2017-03-17T02:25:20.593Z,1007.58
2017-03-17T02:26:09.640Z,1007.53
2017-03-17T02:26:57.631Z,1007.44
2017-03-17T02:27:46.743Z,1007.51
2017-03-17T02:28:40.692Z,1007.52
2017-03-17T02:29:29.800Z,1007.53
2017-03-17T02:30:19.146Z,1007.50
2017-03-17T02:31:07.860Z,1007.49
2017-03-17T02:32:01.901Z,1007.50
2017-03-17T02:32:55.907Z,1007.51
2017-03-17T02:33:43.998Z,1007.49
2017-03-17T02:34:39.034Z,1007.49
2017-03-17T02:35:33.074Z,1007.48
2017-03-17T02:36:27.103Z,1007.43
2017-03-17T02:37:27.229Z,1007.44
2017-03-17T02:38:22.179Z,1007.43
2017-03-17T02:39:17.196Z,1007.42
2017-03-17T02:40:05.223Z,1007.38
2017-03-17T02:40:53.258Z,1007.39
2017-03-17T02:41:47.308Z,1007.42
2017-03-17T02:42:41.321Z,1007.39
2017-03-17T02:43:29.793Z,1007.35
2017-03-17T02:44:18.442Z,1007.32
2017-03-17T02:45:06.420Z,1007.31
2017-03-17T02:46:06.522Z,1007.35
2017-03-17T02:46:55.517Z,1007.30
2017-03-17T02:47:43.621Z,1007.37
2017-03-17T02:48:38.171Z,1007.39
2017-03-17T02:49:31.622Z,1007.33
2017-03-17T02:50:26.695Z,1007.34
2017-03-17T02:51:26.749Z,1007.31
2017-03-17T02:52:26.723Z,1007.36
2017-03-17T02:53:20.917Z,1007.33
2017-03-17T02:54:15.838Z,1007.36
2017-03-17T02:55:09.860Z,1007.31
2017-03-17T02:56:03.905Z,1007.39
2017-03-17T02:56:58.919Z,1007.37
2017-03-17T02:57:46.985Z,1007.33
2017-03-17T02:58:36.060Z,1007.29
2017-03-17T02:59:24.045Z,1007.32
2017-03-17T03:00:18.485Z,1007.32
2017-03-17T03:01:07.099Z,1007.30
2017-03-17T03:02:02.144Z,1007.32
2017-03-17T03:02:56.172Z,1007.33
2017-03-17T03:03:45.230Z,1007.30
2017-03-17T03:04:34.244Z,1007.33
2017-03-17T03:05:34.313Z,1007.34
2017-03-17T03:06:22.371Z,1007.34
2017-03-17T03:07:16.348Z,1007.30
2017-03-17T03:08:05.416Z,1007.35
2017-03-17T03:08:59.453Z,1007.36
2017-03-17T03:09:54.423Z,1007.35
2017-03-17T03:10:43.536Z,1007.37
2017-03-17T03:11:37.513Z,1007.33
2017-03-17T03:12:25.632Z,1007.31
2017-03-17T03:13:20.598Z,1007.32
2017-03-17T03:14:14.620Z,1007.34
2017-03-17T03:15:02.740Z,1007.29
2017-03-17T03:15:50.753Z,1007.28
2017-03-17T03:16:44.769Z,1007.25
2017-03-17T03:17:33.840Z,1007.29
2017-03-17T03:18:21.865Z,1007.25
2017-03-17T03:19:17.041Z,1007.20
2017-03-17T03:20:04.964Z,1007.21
2017-03-17T03:20:52.920Z,1007.17
2017-03-17T03:21:41.573Z,1007.18
2017-03-17T03:22:29.102Z,1007.18
2017-03-17T03:23:29.212Z,1007.19
2017-03-17T03:24:23.459Z,1007.19
2017-03-17T03:25:12.146Z,1007.21
2017-03-17T03:26:00.179Z,1007.14
2017-03-17T03:26:54.264Z,1007.12
2017-03-17T03:27:48.224Z,1007.13
2017-03-17T03:28:43.533Z,1007.12
2017-03-17T03:29:32.341Z,1007.19
2017-03-17T03:30:27.370Z,1007.13
2017-03-17T03:31:21.679Z,1007.15
2017-03-17T03:32:10.440Z,1007.22
2017-03-17T03:32:59.548Z,1007.15
2017-03-17T03:33:53.542Z,1007.21
2017-03-17T03:34:42.555Z,1007.25
2017-03-17T03:35:31.625Z,1007.24
2017-03-17T03:36:25.630Z,1007.24
2017-03-17T03:37:13.668Z,1007.27
2017-03-17T03:38:02.719Z,1007.27
2017-03-17T03:38:56.718Z,1007.28
2017-03-17T03:39:50.829Z,1007.31
2017-03-17T03:40:44.738Z,1007.28
2017-03-17T03:41:32.843Z,1007.29
2017-03-17T03:42:32.909Z,1007.28
2017-03-17T03:43:26.925Z,1007.30
2017-03-17T03:44:15.942Z,1007.32
2017-03-17T03:45:05.013Z,1007.30
2017-03-17T03:45:59.035Z,1007.37
2017-03-17T03:46:54.067Z,1007.36
2017-03-17T03:47:42.195Z,1007.38
2017-03-17T03:48:36.162Z,1007.40
2017-03-17T03:49:24.196Z,1007.41
2017-03-17T03:50:18.209Z,1007.41
2017-03-17T03:51:07.239Z,1007.41
2017-03-17T03:52:01.315Z,1007.37
2017-03-17T03:52:50.477Z,1007.40
2017-03-17T03:53:44.979Z,1007.42
2017-03-17T03:54:39.409Z,1007.37
2017-03-17T03:55:27.512Z,1007.39
2017-03-17T03:56:15.525Z,1007.41
2017-03-17T03:57:09.514Z,1007.40
2017-03-17T03:58:03.561Z,1007.39
2017-03-17T03:58:52.651Z,1007.37
2017-03-17T03:59:47.094Z,1007.47
2017-03-17T04:00:35.698Z,1007.40
2017-03-17T04:01:23.799Z,1007.37
2017-03-17T04:02:17.752Z,1007.41
2017-03-17T04:03:05.849Z,1007.37
2017-03-17T04:04:00.287Z,1007.40
2017-03-17T04:04:47.892Z,1007.46
2017-03-17T04:05:41.899Z,1007.42
2017-03-17T04:06:35.907Z,1007.41
2017-03-17T04:07:25.038Z,1007.42
2017-03-17T04:08:19.045Z,1007.44
2017-03-17T04:09:08.052Z,1007.45
2017-03-17T04:09:57.138Z,1007.44
2017-03-17T04:10:52.182Z,1007.45
2017-03-17T04:11:40.134Z,1007.46
2017-03-17T04:12:29.246Z,1007.43
2017-03-17T04:13:18.293Z,1007.45
2017-03-17T04:14:07.289Z,1007.46
2017-03-17T04:14:55.345Z,1007.43
2017-03-17T04:15:44.368Z,1007.44
2017-03-17T04:16:39.429Z,1007.46
2017-03-17T04:17:34.458Z,1007.43
2017-03-17T04:18:34.489Z,1007.44
2017-03-17T04:19:29.505Z,1007.31
2017-03-17T04:20:23.523Z,1007.38
2017-03-17T04:21:12.563Z,1007.36
2017-03-17T04:22:00.603Z,1007.41
2017-03-17T04:23:00.615Z,1007.42
2017-03-17T04:23:54.652Z,1007.40
2017-03-17T04:24:48.651Z,1007.40
2017-03-17T04:25:42.753Z,1007.37
2017-03-17T04:26:36.819Z,1007.41
2017-03-17T04:27:25.825Z,1007.42
2017-03-17T04:28:14.828Z,1007.38
2017-03-17T04:29:08.906Z,1007.39
2017-03-17T04:29:57.989Z,1007.36
2017-03-17T04:30:45.965Z,1007.44
2017-03-17T04:31:34.955Z,1007.36
2017-03-17T04:32:30.004Z,1007.38
2017-03-17T04:33:24.111Z,1007.36
2017-03-17T04:34:13.131Z,1007.35
2017-03-17T04:35:02.205Z,1007.39
2017-03-17T04:35:50.152Z,1007.39
2017-03-17T04:36:44.222Z,1007.38
2017-03-17T04:37:32.250Z,1007.36
2017-03-17T04:38:26.313Z,1007.37
2017-03-17T04:39:15.339Z,1007.38
2017-03-17T04:40:03.758Z,1007.43
2017-03-17T04:40:51.331Z,1007.39
2017-03-17T04:41:40.443Z,1007.41
2017-03-17T04:42:29.785Z,1007.42
2017-03-17T04:43:30.239Z,1007.42
2017-03-17T04:44:23.573Z,1007.44
2017-03-17T04:45:12.579Z,1007.41
2017-03-17T04:46:07.007Z,1007.40
2017-03-17T04:47:00.693Z,1007.36
2017-03-17T04:47:48.747Z,1007.35
2017-03-17T04:48:37.775Z,1007.36
2017-03-17T04:49:32.791Z,1007.34
2017-03-17T04:50:27.833Z,1007.38
2017-03-17T04:51:27.825Z,1007.34
2017-03-17T04:52:15.908Z,1007.29
2017-03-17T04:53:03.962Z,1007.26
2017-03-17T04:53:53.417Z,1007.34
2017-03-17T04:54:41.014Z,1007.32
2017-03-17T04:55:30.025Z,1007.30
2017-03-17T04:56:19.103Z,1007.29
2017-03-17T04:57:13.138Z,1007.27
2017-03-17T04:58:01.169Z,1007.25
2017-03-17T04:58:50.188Z,1007.27
2017-03-17T04:59:45.267Z,1007.28
2017-03-17T05:00:45.317Z,1007.22
2017-03-17T05:01:40.311Z,1007.22
2017-03-17T05:02:34.316Z,1007.23
2017-03-17T05:03:23.390Z,1007.20
2017-03-17T05:04:17.459Z,1007.25
2017-03-17T05:05:05.472Z,1007.19
2017-03-17T05:05:55.062Z,1007.14
2017-03-17T05:06:43.547Z,1007.16
2017-03-17T05:07:32.603Z,1007.14
2017-03-17T05:08:21.642Z,1007.11
2017-03-17T05:09:15.624Z,1007.15
2017-03-17T05:10:09.719Z,1007.10
2017-03-17T05:11:03.741Z,1007.09
2017-03-17T05:11:51.710Z,1007.08
2017-03-17T05:12:45.797Z,1007.14
2017-03-17T05:13:33.839Z,1007.11
2017-03-17T05:14:28.860Z,1007.13
2017-03-17T05:15:22.933Z,1007.08
2017-03-17T05:16:11.950Z,1007.08
2017-03-17T05:17:00.997Z,1007.05
2017-03-17T05:17:56.111Z,1007.01
2017-03-17T05:18:50.078Z,1007.03
2017-03-17T05:19:44.092Z,1007.03
2017-03-17T05:20:32.162Z,1007.02
2017-03-17T05:21:20.175Z,1007.00
2017-03-17T05:22:15.192Z,1007.00
2017-03-17T05:23:09.294Z,1007.00
2017-03-17T05:24:04.259Z,1007.02
2017-03-17T05:24:53.296Z,1007.05
2017-03-17T05:25:47.381Z,1007.08
2017-03-17T05:26:36.407Z,1007.06
2017-03-17T05:27:36.409Z,1007.08
2017-03-17T05:28:31.436Z,1007.05
2017-03-17T05:29:19.521Z,1007.02
2017-03-17T05:30:19.444Z,1007.07
2017-03-17T05:31:13.949Z,1007.09
2017-03-17T05:32:08.607Z,1007.12
2017-03-17T05:33:02.655Z,1007.10
2017-03-17T05:33:51.641Z,1007.09
2017-03-17T05:34:40.709Z,1007.12
2017-03-17T05:35:40.763Z,1007.10
2017-03-17T05:36:35.789Z,1007.10
2017-03-17T05:37:30.853Z,1007.09
2017-03-17T05:38:30.853Z,1007.10
2017-03-17T05:39:30.917Z,1007.10
2017-03-17T05:40:30.920Z,1007.10
2017-03-17T05:41:25.932Z,1007.14
2017-03-17T05:42:21.040Z,1007.13
2017-03-17T05:43:15.509Z,1007.13
2017-03-17T05:44:03.028Z,1007.17
2017-03-17T05:44:57.080Z,1007.22
2017-03-17T05:45:45.093Z,1007.24
2017-03-17T05:46:33.130Z,1007.27
2017-03-17T05:47:22.254Z,1007.29
2017-03-17T05:48:16.838Z,1007.25
2017-03-17T05:49:04.271Z,1007.29
2017-03-17T05:49:53.294Z,1007.29
2017-03-17T05:50:48.324Z,1007.26
2017-03-17T05:51:37.392Z,1007.32
2017-03-17T05:52:26.436Z,1007.32
2017-03-17T05:53:20.425Z,1007.33
2017-03-17T05:54:20.437Z,1007.34
2017-03-17T05:55:08.559Z,1007.30
2017-03-17T05:56:03.570Z,1007.38
2017-03-17T05:56:52.605Z,1007.34
2017-03-17T05:57:46.865Z,1007.36
2017-03-17T05:58:34.708Z,1007.37
2017-03-17T05:59:23.713Z,1007.33
2017-03-17T06:00:18.809Z,1007.32
2017-03-17T06:01:12.834Z,1007.28
2017-03-17T06:02:00.824Z,1007.33
2017-03-17T06:02:49.584Z,1007.34
2017-03-17T06:03:36.967Z,1007.36
2017-03-17T06:04:25.984Z,1007.37
2017-03-17T06:05:14.075Z,1007.39
2017-03-17T06:06:08.047Z,1007.37
2017-03-17T06:06:57.043Z,1007.38
2017-03-17T06:07:51.102Z,1007.36
2017-03-17T06:08:40.143Z,1007.33
2017-03-17T06:09:35.186Z,1007.39
2017-03-17T06:10:23.589Z,1007.42
2017-03-17T06:11:23.676Z,1007.43
2017-03-17T06:12:12.326Z,1007.47
2017-03-17T06:13:01.331Z,1007.52
2017-03-17T06:13:50.327Z,1007.49
2017-03-17T06:14:39.438Z,1007.47
2017-03-17T06:15:28.462Z,1007.47
2017-03-17T06:16:16.533Z,1007.45
2017-03-17T06:17:04.528Z,1007.48
2017-03-17T06:17:53.617Z,1007.49
2017-03-17T06:18:42.632Z,1007.50
2017-03-17T06:19:30.651Z,1007.49
2017-03-17T06:20:19.689Z,1007.47
2017-03-17T06:21:13.738Z,1007.47
2017-03-17T06:22:02.736Z,1007.54
2017-03-17T06:22:52.313Z,1007.57
2017-03-17T06:23:39.862Z,1007.58
2017-03-17T06:24:28.924Z,1007.52
2017-03-17T06:25:17.929Z,1007.55
2017-03-17T06:26:06.987Z,1007.53
2017-03-17T06:26:54.982Z,1007.55
2017-03-17T06:27:44.058Z,1007.51
2017-03-17T06:28:32.125Z,1007.51
2017-03-17T06:29:21.165Z,1007.57
2017-03-17T06:30:15.199Z,1007.58
2017-03-17T06:31:03.249Z,1007.62
2017-03-17T06:31:57.288Z,1007.61
2017-03-17T06:32:46.301Z,1007.64
2017-03-17T06:33:40.342Z,1007.67
2017-03-17T06:34:34.341Z,1007.69
2017-03-17T06:35:23.940Z,1007.70
2017-03-17T06:36:17.438Z,1007.67
2017-03-17T06:37:06.470Z,1007.69
2017-03-17T06:38:00.500Z,1007.65
2017-03-17T06:38:49.582Z,1007.71
2017-03-17T06:39:43.589Z,1007.70
2017-03-17T06:40:32.652Z,1007.78
2017-03-17T06:41:21.687Z,1007.76
2017-03-17T06:42:15.718Z,1007.76
2017-03-17T06:43:10.324Z,1007.78
2017-03-17T06:43:58.762Z,1007.82
2017-03-17T06:44:46.826Z,1007.76
2017-03-17T06:45:40.839Z,1007.85
2017-03-17T06:46:29.216Z,1007.80
2017-03-17T06:47:22.918Z,1007.87
2017-03-17T06:48:12.010Z,1007.88
2017-03-17T06:49:00.987Z,1007.95
2017-03-17T06:49:55.059Z,1007.93
2017-03-17T06:50:44.144Z,1007.94
2017-03-17T06:51:32.255Z,1007.94
2017-03-17T06:52:26.240Z,1007.94
2017-03-17T06:53:14.207Z,1007.98
2017-03-17T06:54:14.251Z,1007.97
2017-03-17T06:55:02.281Z,1007.95
2017-03-17T06:55:50.340Z,1007.91
2017-03-17T06:56:39.416Z,1007.89
2017-03-17T06:57:33.436Z,1007.92
2017-03-17T06:58:27.491Z,1008.01
2017-03-17T06:59:22.514Z,1007.99
2017-03-17T07:00:10.490Z,1008.02
2017-03-17T07:00:58.720Z,1008.02
2017-03-17T07:01:47.688Z,1008.02
2017-03-17T07:02:41.934Z,1008.07
2017-03-17T07:03:31.209Z,1008.08
2017-03-17T07:04:19.724Z,1008.15
2017-03-17T07:05:07.728Z,1008.15
2017-03-17T07:05:55.846Z,1008.18
2017-03-17T07:06:43.858Z,1008.21
2017-03-17T07:07:38.916Z,1008.22
2017-03-17T07:08:33.218Z,1008.21
2017-03-17T07:09:26.948Z,1008.21
2017-03-17T07:10:22.030Z,1008.23
2017-03-17T07:11:11.050Z,1008.21
2017-03-17T07:12:00.498Z,1008.26
2017-03-17T07:12:54.136Z,1008.25
2017-03-17T07:13:43.120Z,1008.29
2017-03-17T07:14:31.365Z,1008.32
2017-03-17T07:15:25.221Z,1008.35
2017-03-17T07:16:19.273Z,1008.35
2017-03-17T07:17:13.324Z,1008.39
2017-03-17T07:18:02.800Z,1008.36
2017-03-17T07:18:56.412Z,1008.27
2017-03-17T07:19:51.420Z,1008.38
2017-03-17T07:20:51.428Z,1008.37
2017-03-17T07:21:45.509Z,1008.41
2017-03-17T07:22:39.577Z,1008.42
2017-03-17T07:23:28.543Z,1008.46
2017-03-17T07:24:17.580Z,1008.43
2017-03-17T07:25:12.629Z,1008.45
2017-03-17T07:26:07.633Z,1008.47
2017-03-17T07:27:07.690Z,1008.45
2017-03-17T07:28:02.735Z,1008.54
2017-03-17T07:28:51.770Z,1008.53
2017-03-17T07:29:39.826Z,1008.53
2017-03-17T07:30:28.843Z,1008.60
2017-03-17T07:31:16.928Z,1008.55
2017-03-17T07:32:06.624Z,1008.53
2017-03-17T07:32:59.993Z,1008.48
2017-03-17T07:34:01.042Z,1008.51
2017-03-17T07:34:50.054Z,1008.53
2017-03-17T07:35:44.086Z,1008.57
2017-03-17T07:36:33.120Z,1008.59
2017-03-17T07:37:28.131Z,1008.60
2017-03-17T07:38:23.177Z,1008.56
2017-03-17T07:39:11.295Z,1008.69
2017-03-17T07:40:00.273Z,1008.64
2017-03-17T07:40:54.346Z,1008.67
2017-03-17T07:41:48.332Z,1008.64
2017-03-17T07:42:42.457Z,1008.69
2017-03-17T07:43:30.413Z,1008.68
2017-03-17T07:44:19.499Z,1008.71
2017-03-17T07:45:08.009Z,1008.68
2017-03-17T07:45:56.542Z,1008.69
2017-03-17T07:46:44.587Z,1008.72
2017-03-17T07:47:38.659Z,1008.64
2017-03-17T07:48:26.738Z,1008.65
2017-03-17T07:49:15.776Z,1008.58
2017-03-17T07:50:16.769Z,1008.62
2017-03-17T07:51:04.826Z,1008.63
2017-03-17T07:51:53.842Z,1008.64
2017-03-17T07:52:42.866Z,1008.62
2017-03-17T07:53:30.932Z,1008.68
2017-03-17T07:54:24.961Z,1008.63
2017-03-17T07:55:19.062Z,1008.60
2017-03-17T07:56:19.051Z,1008.59
2017-03-17T07:57:07.072Z,1008.63
2017-03-17T07:57:56.083Z,1008.65
2017-03-17T07:58:56.157Z,1008.63
2017-03-17T07:59:44.146Z,1008.69
2017-03-17T08:00:33.238Z,1008.72
2017-03-17T08:01:27.287Z,1008.71
2017-03-17T08:02:21.319Z,1008.67
2017-03-17T08:03:15.349Z,1008.65
2017-03-17T08:04:10.524Z,1008.63
2017-03-17T08:04:58.419Z,1008.61
2017-03-17T08:05:46.440Z,1008.59
2017-03-17T08:06:40.600Z,1008.60
2017-03-17T08:07:28.518Z,1008.54
2017-03-17T08:08:22.588Z,1008.52
2017-03-17T08:09:11.995Z,1008.53
2017-03-17T08:10:00.670Z,1008.55
2017-03-17T08:10:49.687Z,1008.53
2017-03-17T08:11:43.704Z,1008.54
2017-03-17T08:12:37.820Z,1008.51
2017-03-17T08:13:31.838Z,1008.55
2017-03-17T08:14:20.844Z,1008.54
2017-03-17T08:15:15.331Z,1008.53
2017-03-17T08:16:03.940Z,1008.59
2017-03-17T08:16:58.037Z,1008.55
2017-03-17T08:17:47.020Z,1008.52
2017-03-17T08:18:36.073Z,1008.59
2017-03-17T08:19:25.135Z,1008.54
2017-03-17T08:20:14.674Z,1008.55
2017-03-17T08:21:08.219Z,1008.59
2017-03-17T08:21:57.192Z,1008.60
2017-03-17T08:22:46.656Z,1008.61
2017-03-17T08:23:34.731Z,1008.57
2017-03-17T08:24:23.380Z,1008.66
2017-03-17T08:25:17.428Z,1008.68
2017-03-17T08:26:11.473Z,1008.67
2017-03-17T08:26:59.498Z,1008.69
2017-03-17T08:27:59.542Z,1008.69
2017-03-17T08:28:53.573Z,1008.71
2017-03-17T08:29:53.638Z,1008.72
2017-03-17T08:30:42.629Z,1008.71
2017-03-17T08:31:36.732Z,1008.65
2017-03-17T08:32:36.768Z,1008.72
2017-03-17T08:33:25.804Z,1008.60
2017-03-17T08:34:19.807Z,1008.50
2017-03-17T08:35:13.881Z,1008.50
2017-03-17T08:36:01.911Z,1008.50
2017-03-17T08:36:56.943Z,1008.39
2017-03-17T08:37:52.004Z,1008.41
2017-03-17T08:38:47.470Z,1008.45
2017-03-17T08:39:36.045Z,1008.50
2017-03-17T08:40:25.122Z,1008.52
2017-03-17T08:41:19.770Z,1008.57
2017-03-17T08:42:08.243Z,1008.62
2017-03-17T08:43:08.237Z,1008.57
2017-03-17T08:44:08.225Z,1008.58
2017-03-17T08:44:57.298Z,1008.61
2017-03-17T08:45:51.499Z,1008.66
2017-03-17T08:46:40.384Z,1008.80
2017-03-17T08:47:35.477Z,1008.73
2017-03-17T08:48:24.442Z,1008.69
2017-03-17T08:49:18.652Z,1008.66
2017-03-17T08:50:07.524Z,1008.64
2017-03-17T08:51:01.572Z,1008.53
2017-03-17T08:51:51.085Z,1008.53
2017-03-17T08:52:44.672Z,1008.51
2017-03-17T08:53:33.732Z,1008.62
2017-03-17T08:54:34.754Z,1008.51
2017-03-17T08:55:29.770Z,1008.36
2017-03-17T08:56:29.831Z,1008.38
2017-03-17T08:57:17.860Z,1008.50
2017-03-17T08:58:06.943Z,1008.34
2017-03-17T08:59:01.953Z,1008.33
2017-03-17T08:59:55.949Z,1008.43
2017-03-17T09:00:44.057Z,1008.55
2017-03-17T09:01:38.067Z,1008.44
2017-03-17T09:02:27.144Z,1008.60
2017-03-17T09:03:16.213Z,1008.62
2017-03-17T09:04:10.227Z,1008.48
2017-03-17T09:05:04.271Z,1008.57
2017-03-17T09:05:52.818Z,1008.64
2017-03-17T09:06:52.730Z,1008.65
2017-03-17T09:07:47.377Z,1008.48
2017-03-17T09:08:35.482Z,1008.47
2017-03-17T09:09:24.950Z,1008.51
2017-03-17T09:10:18.542Z,1008.44
2017-03-17T09:11:07.581Z,1008.33
2017-03-17T09:12:07.609Z,1008.28
2017-03-17T09:13:02.651Z,1008.30
2017-03-17T09:13:50.728Z,1008.33
2017-03-17T09:14:39.735Z,1008.36
2017-03-17T09:15:28.758Z,1008.45
2017-03-17T09:16:23.854Z,1008.38
2017-03-17T09:17:17.860Z,1008.55
2017-03-17T09:18:05.953Z,1008.50
2017-03-17T09:18:54.059Z,1008.34
2017-03-17T09:19:42.982Z,1008.35
2017-03-17T09:20:38.113Z,1008.31
2017-03-17T09:21:27.521Z,1008.45
2017-03-17T09:22:21.115Z,1008.49
2017-03-17T09:23:10.198Z,1008.58
2017-03-17T09:24:05.268Z,1008.54
2017-03-17T09:24:59.405Z,1008.48
2017-03-17T09:25:48.359Z,1008.41
2017-03-17T09:26:42.374Z,1008.43
2017-03-17T09:27:37.390Z,1008.40
2017-03-17T09:28:31.388Z,1008.38
2017-03-17T09:29:20.560Z,1008.39
2017-03-17T09:30:14.565Z,1008.42
2017-03-17T09:31:08.572Z,1008.39
2017-03-17T09:32:02.579Z,1008.41
2017-03-17T09:32:56.705Z,1008.32
2017-03-17T09:33:45.753Z,1008.43
2017-03-17T09:34:40.752Z,1008.46
2017-03-17T09:35:29.012Z,1008.42
2017-03-17T09:36:28.956Z,1008.35
2017-03-17T09:37:23.863Z,1008.42
2017-03-17T09:38:18.947Z,1008.45
2017-03-17T09:39:13.041Z,1008.57
2017-03-17T09:40:01.483Z,1008.53
2017-03-17T09:40:50.119Z,1008.62
2017-03-17T09:41:45.160Z,1008.49
2017-03-17T09:42:40.126Z,1008.63
2017-03-17T09:43:35.600Z,1008.76
2017-03-17T09:44:30.370Z,1008.62
2017-03-17T09:45:24.479Z,1008.64
2017-03-17T09:46:12.365Z,1008.73
2017-03-17T09:47:06.831Z,1008.66
2017-03-17T09:48:06.400Z,1008.68
2017-03-17T09:49:00.486Z,1008.69
2017-03-17T09:49:49.520Z,1008.68
2017-03-17T09:50:43.614Z,1008.66
2017-03-17T09:51:33.108Z,1008.85
2017-03-17T09:52:26.663Z,1008.66
2017-03-17T09:53:21.755Z,1008.76
2017-03-17T09:54:10.760Z,1008.90
2017-03-17T09:55:05.279Z,1008.92
2017-03-17T09:56:05.322Z,1008.92
2017-03-17T09:56:59.896Z,1008.87
2017-03-17T09:57:53.969Z,1008.79
2017-03-17T09:58:48.009Z,1008.74
2017-03-17T09:59:43.037Z,1008.80
2017-03-17T10:00:32.075Z,1008.80
2017-03-17T10:01:21.181Z,1008.79
2017-03-17T10:02:22.177Z,1008.80
2017-03-17T10:03:16.332Z,1008.87
2017-03-17T10:04:10.213Z,1008.83
2017-03-17T10:05:05.800Z,1008.82
2017-03-17T10:06:00.349Z,1008.80
2017-03-17T10:06:54.418Z,1008.83
2017-03-17T10:07:48.465Z,1008.81
2017-03-17T10:08:42.506Z,1008.80
2017-03-17T10:09:37.989Z,1008.83
2017-03-17T10:10:31.619Z,1008.81
2017-03-17T10:11:20.634Z,1008.82
2017-03-17T10:12:14.690Z,1008.80
2017-03-17T10:13:09.664Z,1008.80
2017-03-17T10:13:57.776Z,1008.81
2017-03-17T10:14:46.839Z,1008.81
2017-03-17T10:15:36.298Z,1008.83
2017-03-17T10:16:23.929Z,1008.82
2017-03-17T10:17:18.099Z,1008.82
2017-03-17T10:18:07.372Z,1008.87
2017-03-17T10:19:01.059Z,1008.87
2017-03-17T10:19:49.163Z,1008.86
2017-03-17T10:20:43.159Z,1008.89
2017-03-17T10:21:37.367Z,1008.93
2017-03-17T10:22:31.266Z,1008.94
2017-03-17T10:23:20.289Z,1008.93
2017-03-17T10:24:14.283Z,1008.91
2017-03-17T10:25:03.435Z,1008.95
2017-03-17T10:25:57.458Z,1008.95
2017-03-17T10:26:46.461Z,1008.92
2017-03-17T10:27:35.912Z,1008.99
2017-03-17T10:28:24.562Z,1008.90
2017-03-17T10:29:19.654Z,1008.87
2017-03-17T10:30:19.650Z,1008.90
2017-03-17T10:31:08.711Z,1008.94
2017-03-17T10:32:02.738Z,1008.93
2017-03-17T10:32:51.126Z,1008.86
2017-03-17T10:33:40.114Z,1008.87